• Join FlightAware (Why Join?)
  • Login
  • US Flag 
12:34AM EDT


 

Airport Tracker/Info


-or-


 

Live Flight TrackerFlight Track Log ✈ JBU1721 ✈ 13-Jun-2013 ✈ KMCO - MKJS / MBJ

Flight Track Log - Related Links

Times and Time Zones

All times are in EDT time to prevent confusion due to time zone crossing. See the JBU1721 flight status page for this flight to view local times or setup timezone preferences in your user account.

Time Position Orientation Groundspeed Altitude Reporting Facility
EDT Latitude Longitude Course Direction KTS MPH feet Rate Location/Type
03:48PM 28.4167 -81.3167 139° Southeast 147 169 700  Level Orlando TRACON
03:49PM 28.3833 -81.2833 139° Southeast 204 235 1,600 1,560 Climbing Orlando TRACON
03:50PM 28.3500 -81.2500 139° Southeast 245 282 3,400 2,400 Climbing Orlando TRACON
03:51PM 28.3167 -81.1500 111° Southeast 282 325 6,400 2,760 Climbing Orlando TRACON
03:52PM 28.2667 -81.0833 130° Southeast 295 339 9,200 2,640 Climbing Orlando TRACON
03:53PM 28.2333 -81.0000 114° Southeast 305 351 11,700 1,860 Climbing Orlando TRACON
03:54PM 28.1833 -80.9000 120° Southeast 357 411 13,200 1,500 Climbing Orlando TRACON
04:05PM 27.4483 -80.9473 149° Southeast  Level Estimated
04:07PM 26.9464 -80.0189 156° South 422 486 33,300  Level Miami Center
04:08PM 26.8469 -79.9836 162° South 416 479 34,000 780 Climbing Miami Center
04:09PM 26.7244 -79.9453 164° South 416 479 34,900 600 Climbing Miami Center
04:10PM 26.6208 -79.9125 164° South 416 479 35,200 360 Climbing Miami Center
04:11PM 26.4964 -79.8697 163° South 416 479 35,700 480 Climbing Miami Center
04:12PM 26.8060 -80.7141 156° South  Level Estimated
04:12PM 26.3947 -79.8347 163° South 416 479 36,200  Level Miami Center
04:13PM 26.2722 -79.7969 165° South 416 479 36,700 360 Climbing Miami Center
04:14PM 26.1728 -79.7619 162° South 411 473 37,000 120 Climbing Miami Center
04:15PM 26.0606 -79.7247 163° South 416 479 37,000  Level Miami Center
04:16PM 25.9483 -79.6942 166° South 421 484 37,000  Level Miami Center
04:17PM 25.8319 -79.6661 168° South 421 484 37,000  Level Miami Center
04:18PM 25.7156 -79.6403 169° South 421 484 37,000  Level Miami Center
04:19PM 25.5989 -79.6122 168° South 427 491 37,000  Level Miami Center
04:20PM 25.4844 -79.5844 168° South 427 491 37,000  Level Miami Center
04:21PM 25.3658 -79.5611 170° South 427 491 37,000  Level Miami Center
04:22PM 25.2494 -79.5331 168° South 427 491 37,000  Level Miami Center
04:23PM 25.1350 -79.5078 169° South 427 491 37,000  Level Miami Center
04:24PM 25.0183 -79.4800 168° South 427 491 37,000  Level Miami Center
04:25PM 24.9061 -79.4547 168° South 427 491 37,000  Level Miami Center
04:26PM 24.7875 -79.4294 169° South 427 491 37,000  Level Miami Center
04:27PM 24.6731 -79.4042 169° South 427 491 37,000  Level Miami Center
04:28PM 24.5564 -79.3789 169° South 427 491 37,000  Level Miami Center
04:29PM 24.4397 -79.3514 168° South 427 491 37,000  Level Miami Center
04:30PM 24.3233 -79.3239 168° South 427 491 37,000  Level Miami Center
04:31PM 24.2044 -79.2989 169° South 432 497 37,000  Level Miami Center
04:32PM 24.0900 -79.2739 169° South 426 490 37,000  Level Miami Center
04:34PM 23.9718 -79.1385 160° South  Level FlightAware Approximate
04:41PM 23.2764 -78.9079 169° South  Level FlightAware Approximate
04:42PM 23.1743 -78.8860 169° South  Level FlightAware Approximate
04:43PM 23.0721 -78.8641 169° South  Level FlightAware Approximate
04:44PM 22.9699 -78.8423 169° South  Level FlightAware Approximate
04:45PM 22.8677 -78.8205 169° South  Level FlightAware Approximate
04:46PM 22.7655 -78.7987 169° South  Level FlightAware Approximate
04:47PM 22.6633 -78.7769 169° South  Level FlightAware Approximate
04:48PM 22.5611 -78.7552 169° South  Level FlightAware Approximate
04:49PM 22.4589 -78.7336 169° South  Level FlightAware Approximate
04:50PM 22.3567 -78.7119 169° South  Level FlightAware Approximate
04:51PM 22.2545 -78.6903 169° South  Level FlightAware Approximate
04:52PM 22.1523 -78.6687 169° South  Level FlightAware Approximate
04:53PM 22.0501 -78.6472 169° South  Level FlightAware Approximate
04:54PM 21.9479 -78.6257 169° South  Level FlightAware Approximate
04:55PM 21.8457 -78.6042 169° South  Level FlightAware Approximate
04:56PM 21.7435 -78.5828 169° South  Level FlightAware Approximate
04:57PM 21.6413 -78.5613 169° South  Level FlightAware Approximate
04:58PM 21.5390 -78.5400 169° South  Level FlightAware Approximate
04:59PM 21.4368 -78.5186 169° South  Level FlightAware Approximate
05:00PM 21.3346 -78.4973 169° South  Level FlightAware Approximate
05:01PM 21.2323 -78.4760 169° South  Level FlightAware Approximate
05:02PM 21.1301 -78.4547 169° South  Level FlightAware Approximate
05:03PM 21.0279 -78.4334 169° South  Level FlightAware Approximate
05:04PM 20.9256 -78.4122 169° South  Level FlightAware Approximate
05:05PM 20.8234 -78.3913 169° South  Level FlightAware Approximate
05:06PM 20.7210 -78.3709 169° South  Level FlightAware Approximate
05:07PM 20.6192 -78.3476 168° South  Level FlightAware Approximate
05:08PM 20.5175 -78.3237 168° South  Level FlightAware Approximate
05:09PM 20.4157 -78.2998 168° South  Level FlightAware Approximate
05:10PM 20.3138 -78.2771 168° South  Level FlightAware Approximate
05:11PM 20.2121 -78.2530 167° South  Level FlightAware Approximate
05:12PM 20.1097 -78.2330 170° South  Level FlightAware Approximate
05:13PM 20.0072 -78.2138 170° South  Level FlightAware Approximate
05:14PM 19.9044 -78.1972 168° South  Level FlightAware Approximate
05:15PM 19.8027 -78.1737 168° South  Level FlightAware Approximate
05:16PM 19.7009 -78.1502 168° South  Level FlightAware Approximate
05:17PM 19.5986 -78.1297 169° South  Level FlightAware Approximate
05:18PM 19.4962 -78.1092 169° South  Level FlightAware Approximate
05:19PM 19.3939 -78.0887 169° South  Level FlightAware Approximate
05:20PM 19.2915 -78.0683 169° South  Level FlightAware Approximate
05:21PM 19.1892 -78.0478 169° South  Level FlightAware Approximate
05:22PM 19.0871 -78.0265 168° South  Level FlightAware Approximate
05:23PM 18.9853 -78.0030 168° South  Level FlightAware Approximate
05:24PM 18.8835 -77.9800 169° South  Level FlightAware Approximate
05:25PM 18.7812 -77.9596 169° South  Level FlightAware Approximate
05:26PM 18.6789 -77.9406 167° South  Level FlightAware Approximate
05:27PM 18.5769 -77.9187 169° South  Level FlightAware Approximate
05:28PM 18.5000 -77.9000 167° South  Level FlightAware Approximate
05:29PM 18.5037 -77.9134 167° South  Level Estimated
05:30PM 18.5037 -77.9134 167° South  Level Estimated
05:31PM 18.5037 -77.9134 167° South  Level Estimated
05:32PM 18.5037 -77.9134 167° South  Level Estimated
05:33PM 18.5037 -77.9134 167° South  Level Estimated
05:34PM 18.5037 -77.9134 167° South  Level Estimated
05:35PM 18.5037 -77.9134 167° South  Level Estimated